createdAt,value
2023-03-27T02:43:29.859Z,0.01
2023-03-27T02:47:30.056Z,0.08
2023-03-27T02:51:30.044Z,0.10
2023-03-27T02:55:30.211Z,0.15
2023-03-27T02:59:30.324Z,0.05
2023-03-27T03:03:30.590Z,0.05
2023-03-27T03:07:30.604Z,0.12
2023-03-27T03:11:30.793Z,0.10
2023-03-27T03:15:30.926Z,0.03
2023-03-27T03:19:31.097Z,0.05
2023-03-27T03:23:31.217Z,0.04
2023-03-27T03:27:31.316Z,0.10
2023-03-27T03:31:31.463Z,0.19
2023-03-27T03:35:31.645Z,0.12
2023-03-27T03:39:32.131Z,0.09
2023-03-27T03:43:31.935Z,0.22
2023-03-27T03:47:32.197Z,0.05
2023-03-27T03:51:32.271Z,0.03
2023-03-27T03:55:32.441Z,0.10
2023-03-27T03:59:32.645Z,0.05
2023-03-27T04:03:32.912Z,0.10
2023-03-27T04:07:32.964Z,0.03
2023-03-27T04:11:33.088Z,0.19
2023-03-27T04:15:33.268Z,0.10
2023-03-27T04:19:33.453Z,0.18
2023-03-27T04:23:33.583Z,0.09
2023-03-27T04:27:33.783Z,0.17
2023-03-27T04:31:34.052Z,0.12
2023-03-27T04:35:34.263Z,0.06
2023-03-27T04:39:34.410Z,0.11
2023-03-27T04:43:34.391Z,0.23
2023-03-27T04:47:34.371Z,0.20
2023-03-27T04:51:34.296Z,0.03
2023-03-27T04:55:34.261Z,0.08
2023-03-27T04:59:34.278Z,0.14
2023-03-27T05:03:34.177Z,0.39
2023-03-27T05:07:34.114Z,0.09
2023-03-27T05:11:34.097Z,0.14
2023-03-27T05:15:34.045Z,0.20
2023-03-27T05:19:34.066Z,0.17
2023-03-27T05:23:34.032Z,0.09
2023-03-27T05:27:34.039Z,0.10
2023-03-27T05:31:33.945Z,0.14
2023-03-27T05:35:33.995Z,0.13
2023-03-27T05:39:33.952Z,0.42
2023-03-27T05:43:34.152Z,0.56
2023-03-27T05:47:33.813Z,0.70
2023-03-27T05:51:33.729Z,0.51
2023-03-27T05:55:33.739Z,0.63
2023-03-27T05:59:33.674Z,0.53
2023-03-27T06:03:33.851Z,0.65
2023-03-27T06:07:33.770Z,0.63
2023-03-27T06:11:33.871Z,0.74
2023-03-27T06:15:34.031Z,0.60
2023-03-27T06:19:34.139Z,0.67
2023-03-27T06:23:34.263Z,0.75
2023-03-27T06:27:34.359Z,0.77
2023-03-27T06:31:34.443Z,0.37
2023-03-27T06:35:34.582Z,0.80
2023-03-27T06:39:34.722Z,1.13
2023-03-27T06:43:34.705Z,1.32
2023-03-27T06:47:44.506Z,0.92
2023-03-27T06:51:35.646Z,0.87
2023-03-27T06:55:34.603Z,1.11
2023-03-27T06:59:34.640Z,0.71
2023-03-27T07:03:34.556Z,1.16
2023-03-27T07:07:34.574Z,0.94
2023-03-27T07:11:34.453Z,2.31
2023-03-27T07:15:34.466Z,0.85
2023-03-27T07:19:34.523Z,0.89
2023-03-27T07:23:34.595Z,1.10
2023-03-27T07:30:11.043Z,0.67
2023-03-27T07:34:11.305Z,1.37
2023-03-27T07:38:11.258Z,1.52
2023-03-27T07:42:10.869Z,1.74
2023-03-27T07:46:10.861Z,1.07
2023-03-27T07:50:10.813Z,0.79
2023-03-27T07:54:10.796Z,1.16
2023-03-27T07:58:10.773Z,1.23
2023-03-27T08:02:10.687Z,0.82
2023-03-27T08:06:10.676Z,1.01
2023-03-27T08:10:10.654Z,0.93
2023-03-27T08:14:10.627Z,0.86
2023-03-27T08:18:10.845Z,0.80
2023-03-27T08:22:10.896Z,0.24
2023-03-27T08:26:10.867Z,0.49
2023-03-27T08:30:11.045Z,0.87
2023-03-27T08:34:11.312Z,0.41
2023-03-27T08:38:23.643Z,0.70
2023-03-27T08:42:12.087Z,1.58
2023-03-27T08:46:11.028Z,1.76
2023-03-27T08:50:11.017Z,1.32
2023-03-27T08:54:11.144Z,1.18
2023-03-27T08:58:11.336Z,1.35
2023-03-27T09:02:11.687Z,1.68
2023-03-27T09:06:15.229Z,1.80
2023-03-27T09:10:12.245Z,0.69
2023-03-27T09:14:11.576Z,1.52
2023-03-27T09:18:11.489Z,1.32
2023-03-27T09:22:11.432Z,1.04
2023-03-27T09:26:11.485Z,0.79
2023-03-27T09:30:11.360Z,0.57
2023-03-27T09:34:11.833Z,1.17
2023-03-27T09:38:11.232Z,0.77
2023-03-27T09:42:11.230Z,0.65
2023-03-27T09:46:11.216Z,1.50
2023-03-27T09:50:11.240Z,1.17
2023-03-27T09:54:11.101Z,0.84
2023-03-27T09:58:11.084Z,1.32
2023-03-27T10:02:11.060Z,0.70
2023-03-27T10:06:11.237Z,0.89
2023-03-27T10:10:11.477Z,1.25
2023-03-27T10:14:11.692Z,1.63
2023-03-27T10:18:11.969Z,1.19
2023-03-27T10:22:14.429Z,1.39
2023-03-27T10:26:12.304Z,2.18
2023-03-27T10:30:12.078Z,1.36
2023-03-27T10:34:11.989Z,1.70
2023-03-27T10:38:11.966Z,1.20
2023-03-27T10:42:11.953Z,1.30
2023-03-27T10:46:11.861Z,1.24
2023-03-27T10:50:11.859Z,1.06
2023-03-27T10:54:11.885Z,0.98
2023-03-27T10:58:11.747Z,0.81
2023-03-27T11:02:11.731Z,0.57
2023-03-27T11:06:11.711Z,1.02
2023-03-27T11:10:11.716Z,1.04
2023-03-27T11:14:11.973Z,0.92
2023-03-27T11:18:12.174Z,0.69
2023-03-27T11:22:12.796Z,0.80
2023-03-27T11:26:12.491Z,1.10
2023-03-27T11:30:12.833Z,0.98
2023-03-27T11:34:12.649Z,0.79
2023-03-27T11:38:12.635Z,0.68
2023-03-27T11:42:12.623Z,0.67
2023-03-27T11:46:12.607Z,0.69
2023-03-27T11:50:12.578Z,0.69
2023-03-27T11:54:12.472Z,0.44
2023-03-27T11:58:12.416Z,0.40
2023-03-27T12:02:12.477Z,0.25
2023-03-27T12:06:12.409Z,0.50
2023-03-27T12:10:12.346Z,1.00
2023-03-27T12:14:18.096Z,0.85
2023-03-27T12:18:13.317Z,0.99
2023-03-27T12:22:22.885Z,0.67
2023-03-27T12:26:13.821Z,0.54
2023-03-27T12:30:12.313Z,1.04
2023-03-27T12:34:12.515Z,0.61
2023-03-27T12:38:12.665Z,0.90
2023-03-27T12:42:12.820Z,0.97
2023-03-27T12:46:13.056Z,1.15
2023-03-27T12:50:13.128Z,1.37
2023-03-27T12:54:13.220Z,0.83
2023-03-27T12:58:13.462Z,1.60
2023-03-27T13:02:13.498Z,1.15
2023-03-27T13:06:13.547Z,1.09
2023-03-27T13:10:13.526Z,1.10
2023-03-27T13:14:13.661Z,1.32
2023-03-27T13:18:14.006Z,0.70
2023-03-27T13:22:13.789Z,0.52
2023-03-27T13:26:13.826Z,0.67
2023-03-27T13:30:13.737Z,0.59
2023-03-27T13:34:13.760Z,0.89
2023-03-27T13:38:13.690Z,0.60
2023-03-27T13:42:16.929Z,0.84
2023-03-27T13:46:13.882Z,1.11
2023-03-27T13:50:14.278Z,1.20
2023-03-27T13:54:13.502Z,0.83
2023-03-27T13:58:13.506Z,0.68
2023-03-27T14:02:13.478Z,0.55
2023-03-27T14:06:13.471Z,0.67
2023-03-27T14:10:13.486Z,1.15
2023-03-27T14:14:13.390Z,0.49
2023-03-27T14:18:13.401Z,0.45
2023-03-27T14:22:13.344Z,0.43
2023-03-27T14:26:13.304Z,0.41
2023-03-27T14:30:13.258Z,0.46
2023-03-27T14:34:13.268Z,0.47
2023-03-27T14:38:13.221Z,0.29
2023-03-27T14:42:13.180Z,0.64
2023-03-27T14:46:13.144Z,0.33
2023-03-27T14:50:13.068Z,0.44
2023-03-27T14:54:13.094Z,0.24
2023-03-27T14:58:13.040Z,0.48
2023-03-27T15:02:13.005Z,0.37
2023-03-27T15:06:12.978Z,0.33
2023-03-27T15:10:12.909Z,0.26
2023-03-27T15:14:12.897Z,0.32
2023-03-27T15:18:12.864Z,0.65
2023-03-27T15:22:12.861Z,0.37
2023-03-27T15:26:12.798Z,0.42
2023-03-27T15:30:12.739Z,0.34
2023-03-27T15:34:12.710Z,0.42
2023-03-27T15:38:12.701Z,0.32
2023-03-27T15:42:12.654Z,0.33
2023-03-27T15:46:12.646Z,0.54
2023-03-27T15:50:12.576Z,0.42
2023-03-27T15:54:12.550Z,0.58
2023-03-27T15:58:12.530Z,0.47
2023-03-27T16:02:12.533Z,0.43
2023-03-27T16:06:12.426Z,0.31
2023-03-27T16:10:12.395Z,0.35
2023-03-27T16:14:12.381Z,0.44
2023-03-27T16:18:12.363Z,0.71
2023-03-27T16:22:12.332Z,0.42
2023-03-27T16:26:12.267Z,0.67
2023-03-27T16:30:12.295Z,0.44
2023-03-27T16:34:12.218Z,0.49
2023-03-27T16:38:13.160Z,0.38
2023-03-27T16:42:12.164Z,0.46
2023-03-27T16:46:12.118Z,0.39
2023-03-27T16:50:12.072Z,0.37
2023-03-27T16:54:12.045Z,0.52
2023-03-27T16:58:11.999Z,0.42
2023-03-27T17:02:12.098Z,0.30
2023-03-27T17:06:12.133Z,0.43
2023-03-27T17:10:12.189Z,0.57
2023-03-27T17:14:12.295Z,0.59
2023-03-27T17:18:12.371Z,0.33
2023-03-27T17:22:12.412Z,0.64
2023-03-27T17:26:13.517Z,0.43
2023-03-27T17:30:12.417Z,0.74
2023-03-27T17:34:12.369Z,0.38
2023-03-27T17:38:12.357Z,0.37
2023-03-27T17:42:12.314Z,0.46
2023-03-27T17:46:12.300Z,0.73
2023-03-27T17:50:12.256Z,0.65
2023-03-27T17:54:12.272Z,0.59
2023-03-27T17:58:12.177Z,0.60
2023-03-27T18:02:12.388Z,0.62
2023-03-27T18:06:12.131Z,0.68
2023-03-27T18:10:12.095Z,0.95
2023-03-27T18:14:12.070Z,0.74
2023-03-27T18:18:12.069Z,0.84
2023-03-27T18:22:11.988Z,0.43
2023-03-27T18:26:11.953Z,0.48
2023-03-27T18:30:11.987Z,0.75
2023-03-27T18:34:12.131Z,0.77
2023-03-27T18:38:12.303Z,0.78
2023-03-27T18:42:12.373Z,0.82
2023-03-27T18:46:12.563Z,0.65
2023-03-27T18:50:12.696Z,0.62
2023-03-27T18:54:12.865Z,1.09
2023-03-27T18:58:13.109Z,0.91
2023-03-27T19:02:13.355Z,0.87
2023-03-27T19:06:13.562Z,0.61
2023-03-27T19:10:13.422Z,0.70
2023-03-27T19:14:13.442Z,0.71
2023-03-27T19:18:13.485Z,0.53
2023-03-27T19:22:13.356Z,0.76
2023-03-27T19:26:13.312Z,0.99
2023-03-27T19:30:13.332Z,0.69
2023-03-27T19:34:13.277Z,0.97
2023-03-27T19:38:13.266Z,0.49
2023-03-27T19:42:13.178Z,0.87
2023-03-27T19:46:16.641Z,0.63
2023-03-27T19:50:13.093Z,0.57
2023-03-27T19:54:13.058Z,0.84
2023-03-27T19:58:13.010Z,0.87
2023-03-27T20:02:13.017Z,0.96
2023-03-27T20:10:12.963Z,1.01
2023-03-27T20:14:12.889Z,0.96
2023-03-27T20:18:13.097Z,0.72
2023-03-27T20:22:13.241Z,0.97
2023-03-27T20:26:13.528Z,0.83
2023-03-27T20:30:13.667Z,0.79
2023-03-27T20:34:13.883Z,0.86
2023-03-27T20:38:14.107Z,0.71
2023-03-27T20:42:14.312Z,0.52
2023-03-27T20:46:14.545Z,0.75
2023-03-27T20:50:14.462Z,0.64
2023-03-27T20:54:14.431Z,0.63
2023-03-27T20:58:14.421Z,0.85
2023-03-27T21:02:14.390Z,0.51
2023-03-27T21:06:14.374Z,0.76
2023-03-27T21:10:14.314Z,0.74
2023-03-27T21:14:14.256Z,0.53
2023-03-27T21:18:14.244Z,0.69
2023-03-27T21:22:14.234Z,0.68
2023-03-27T21:26:14.156Z,0.70
2023-03-27T21:30:15.593Z,0.61
2023-03-27T21:34:14.408Z,0.48
2023-03-27T21:38:14.393Z,0.58
2023-03-27T21:42:14.355Z,0.76
2023-03-27T21:46:14.374Z,0.61
2023-03-27T21:50:14.264Z,0.50
2023-03-27T21:54:14.220Z,0.58
2023-03-27T21:58:14.221Z,0.56
2023-03-27T22:02:14.149Z,0.62
2023-03-27T22:06:14.397Z,0.76
2023-03-27T22:10:14.116Z,0.65
2023-03-27T22:14:14.200Z,0.80
2023-03-27T22:18:14.193Z,0.51
2023-03-27T22:22:14.077Z,0.54
2023-03-27T22:26:14.055Z,0.69
2023-03-27T22:30:14.009Z,0.44
2023-03-27T22:34:13.988Z,0.68
2023-03-27T22:38:13.890Z,0.78
2023-03-27T22:42:13.903Z,0.47
2023-03-27T22:46:13.881Z,0.64
2023-03-27T22:50:13.850Z,0.89
2023-03-27T22:54:13.882Z,0.59
2023-03-27T22:58:14.116Z,0.76
2023-03-27T23:02:14.314Z,0.57
2023-03-27T23:06:14.483Z,0.81
2023-03-27T23:10:14.447Z,0.44
2023-03-27T23:14:14.437Z,0.76
2023-03-27T23:18:14.344Z,0.58
2023-03-27T23:22:14.321Z,0.70
2023-03-27T23:26:14.310Z,0.67
2023-03-27T23:30:14.272Z,0.59
2023-03-27T23:34:14.254Z,0.46
2023-03-27T23:38:15.030Z,0.59
2023-03-27T23:42:14.132Z,0.60
2023-03-27T23:46:14.190Z,0.38
2023-03-27T23:50:14.063Z,0.45
2023-03-27T23:54:14.010Z,0.52
2023-03-27T23:58:14.030Z,0.59
